createdAt,value
2023-04-20T00:03:18.018Z,9.40
2023-04-20T00:07:28.735Z,9.90
2023-04-20T00:11:45.990Z,9.00
2023-04-20T00:28:58.179Z,8.30
2023-04-20T00:33:27.354Z,8.00
2023-04-20T00:37:56.107Z,7.20
2023-04-20T00:42:24.847Z,7.20
2023-04-20T00:46:53.518Z,8.10
2023-04-20T00:51:14.759Z,7.80
2023-04-20T01:12:41.668Z,7.80
2023-04-20T01:17:10.314Z,7.40
2023-04-20T01:21:19.253Z,7.30
2023-04-20T01:25:48.644Z,7.40
2023-04-20T01:30:17.973Z,7.00
2023-04-20T01:56:18.648Z,7.10
2023-04-20T02:00:36.567Z,8.00
2023-04-20T02:30:58.599Z,7.40
2023-04-20T02:35:16.675Z,7.50
2023-04-20T03:07:45.096Z,7.80
2023-04-20T03:12:07.494Z,7.80
2023-04-20T03:16:24.085Z,7.40
2023-04-20T03:20:53.399Z,6.90
2023-04-20T03:25:22.078Z,7.50
2023-04-20T03:29:53.854Z,6.10
2023-04-20T03:34:11.368Z,7.00
2023-04-20T03:38:34.633Z,7.00
2023-04-20T03:42:52.403Z,6.80
2023-04-20T04:18:26.016Z,8.20
2023-04-20T04:22:43.655Z,7.90
2023-04-20T04:27:25.716Z,7.50
2023-04-20T04:53:09.117Z,8.10
2023-04-20T04:57:38.789Z,8.30
2023-04-20T05:01:52.091Z,7.90
2023-04-20T05:06:21.233Z,7.40
2023-04-20T05:10:51.275Z,8.00
2023-04-20T05:27:59.345Z,7.60
2023-04-20T05:32:28.744Z,8.10
2023-04-20T05:36:59.774Z,7.90
2023-04-20T06:02:51.023Z,8.30
2023-04-20T06:07:21.805Z,7.40
2023-04-20T06:11:52.113Z,8.20
2023-04-20T06:16:23.430Z,6.90
2023-04-20T06:20:41.512Z,7.50
2023-04-20T06:37:20.380Z,8.70
2023-04-20T06:41:32.156Z,7.90
2023-04-20T06:45:43.983Z,7.20
2023-04-20T06:49:53.389Z,8.90
2023-04-20T06:53:51.398Z,8.40
2023-04-20T06:58:25.363Z,7.60
2023-04-20T07:36:36.086Z,8.60
2023-04-20T07:40:26.447Z,8.20
2023-04-20T07:44:12.753Z,8.90
2023-04-20T07:48:42.707Z,7.50
2023-04-20T08:09:14.024Z,8.40
2023-04-20T08:13:33.414Z,8.10
2023-04-20T08:18:02.609Z,8.20
2023-04-20T08:22:12.734Z,8.70
2023-04-20T08:51:03.814Z,7.00
2023-04-20T08:55:03.309Z,7.10
2023-04-20T08:58:33.485Z,7.40
2023-04-20T09:01:47.630Z,7.80
2023-04-20T09:05:11.460Z,7.50
2023-04-20T09:09:23.929Z,6.80
2023-04-20T09:13:17.567Z,7.00
2023-04-20T09:21:41.796Z,6.90
2023-04-20T10:01:43.409Z,7.10
2023-04-20T10:06:15.314Z,6.20
2023-04-20T10:09:35.053Z,6.80
2023-04-20T10:13:23.869Z,6.30
2023-04-20T10:16:43.946Z,6.10
2023-04-20T10:20:28.846Z,6.80
2023-04-20T10:24:17.083Z,6.90
2023-04-20T10:28:05.804Z,6.90
2023-04-20T10:32:18.677Z,6.20
2023-04-20T10:35:50.927Z,6.90
2023-04-20T10:39:26.273Z,6.90
2023-04-20T10:42:29.386Z,6.80
2023-04-20T10:44:58.769Z,7.10
2023-04-20T10:47:57.625Z,6.70
2023-04-20T10:50:54.216Z,6.30
2023-04-20T10:54:38.243Z,6.10
2023-04-20T10:58:49.466Z,7.40
2023-04-20T11:02:54.282Z,6.90
2023-04-20T11:06:56.587Z,7.00
2023-04-20T11:18:52.494Z,7.10
2023-04-20T12:20:15.642Z,4.30
2023-04-20T12:24:26.711Z,5.40
2023-04-20T12:28:49.953Z,5.50
2023-04-20T12:33:21.327Z,5.00
2023-04-20T12:37:04.022Z,5.10
2023-04-20T12:41:28.280Z,3.60
2023-04-20T12:45:34.288Z,3.60
2023-04-20T12:54:12.511Z,4.10
2023-04-20T12:58:09.931Z,3.50
2023-04-20T13:01:18.791Z,3.10
2023-04-20T13:05:14.688Z,3.50
2023-04-20T13:12:54.453Z,3.80
2023-04-20T13:17:07.982Z,4.00
2023-04-20T13:21:19.851Z,3.40
2023-04-20T13:25:45.297Z,3.20
2023-04-20T13:29:49.647Z,3.20
2023-04-20T13:33:46.344Z,3.30
2023-04-20T13:38:03.745Z,3.80
2023-04-20T13:42:14.411Z,3.30
2023-04-20T13:45:48.567Z,3.80
2023-04-20T13:49:56.190Z,3.00
2023-04-20T13:53:39.380Z,3.40
2023-04-20T13:58:08.646Z,5.00
2023-04-20T14:02:02.277Z,2.80
2023-04-20T14:06:13.995Z,4.00
2023-04-20T14:10:25.362Z,3.30
2023-04-20T14:18:14.496Z,2.80
2023-04-20T14:22:02.997Z,3.50
2023-04-20T14:26:07.306Z,3.20
2023-04-20T14:30:01.724Z,3.60
2023-04-20T14:34:13.448Z,3.00
2023-04-20T14:38:26.166Z,2.90
2023-04-20T14:42:24.982Z,3.30
2023-04-20T15:18:05.913Z,3.20
2023-04-20T15:21:54.797Z,3.50
2023-04-20T15:25:45.152Z,3.30
2023-04-20T15:29:59.640Z,3.80
2023-04-20T15:34:13.620Z,3.70
2023-04-20T15:38:11.262Z,3.00
2023-04-20T15:42:07.930Z,2.70
2023-04-20T15:46:25.949Z,3.20
2023-04-20T15:54:40.417Z,2.70
2023-04-20T16:02:08.522Z,2.80
2023-04-20T16:10:29.705Z,3.10
2023-04-20T16:14:47.744Z,3.00
2023-04-20T16:23:30.468Z,3.80
2023-04-20T16:28:00.251Z,3.70
2023-04-20T16:32:30.479Z,3.20
2023-04-20T16:36:48.260Z,3.30
2023-04-20T16:41:18.558Z,4.00
2023-04-20T16:45:47.524Z,2.80
2023-04-20T16:49:43.850Z,4.00
2023-04-20T16:54:05.176Z,4.00
2023-04-20T17:02:45.692Z,4.70
2023-04-20T17:35:23.015Z,4.50
2023-04-20T17:39:40.324Z,4.80
2023-04-20T17:43:27.552Z,4.30
2023-04-20T17:47:35.976Z,4.40
2023-04-20T17:51:37.484Z,3.70
2023-04-20T18:17:07.269Z,4.80
2023-04-20T18:21:36.546Z,5.00
2023-04-20T18:25:49.031Z,4.40
2023-04-20T18:30:21.320Z,4.30
2023-04-20T18:34:31.370Z,4.00
2023-04-20T18:39:00.886Z,4.40
2023-04-20T18:43:31.127Z,5.40
2023-04-20T18:47:43.761Z,4.80
2023-04-20T18:52:07.362Z,4.30
2023-04-20T19:10:23.649Z,5.70
2023-04-20T19:14:52.431Z,7.00
2023-04-20T19:19:14.551Z,6.40
2023-04-20T19:23:36.893Z,6.10
2023-04-20T19:27:46.300Z,7.00
2023-04-20T19:36:13.798Z,8.00
2023-04-20T19:40:31.360Z,8.90
2023-04-20T19:45:00.893Z,8.30
2023-04-20T20:02:04.198Z,16.60
2023-04-20T20:06:33.663Z,21.10
2023-04-20T20:10:56.030Z,15.20
2023-04-20T20:37:13.446Z,11.60
2023-04-20T20:41:42.466Z,9.50
2023-04-20T21:03:15.977Z,11.10
2023-04-20T21:07:25.751Z,9.70
2023-04-20T21:11:54.405Z,9.70
2023-04-20T21:16:23.595Z,8.30
2023-04-20T21:38:00.059Z,7.60
2023-04-20T21:42:24.257Z,7.90
2023-04-20T21:46:42.132Z,7.10
2023-04-20T21:55:07.719Z,6.50
2023-04-20T21:59:36.873Z,6.80
2023-04-20T22:04:07.597Z,7.00
2023-04-20T22:12:39.274Z,7.30
2023-04-20T22:17:10.249Z,8.80
2023-04-20T22:34:00.685Z,6.80
2023-04-20T22:38:29.877Z,7.10
2023-04-20T22:42:41.785Z,7.30
2023-04-20T22:50:54.256Z,7.10
2023-04-20T22:54:53.208Z,8.40
2023-04-20T22:59:22.920Z,7.10
2023-04-20T23:21:07.348Z,7.40
2023-04-20T23:25:18.287Z,7.20
2023-04-20T23:29:40.751Z,6.00
2023-04-20T23:51:16.680Z,7.90
2023-04-20T23:55:45.538Z,7.60
